Time;durP1;ratioP1;P1;durP2;ratioP2;P2;SDS_P1;SDS_P2;PMS_P1;PMS_P2;Temp;Humidity;BMP_temperature;BMP_pressure;BME280_temperature;BME280_humidity;BME280_pressure;Samples;Min_cycle;Max_cycle;Signal;HPM_P1;HPM_P2
2020/12/13 00:00:09;;;;;;;12.55;4.60;;;;;;;16.45;39.53;99945.66;4978710;28;20472;-85
2020/12/13 00:02:35;;;;;;;13.25;4.00;;;;;;;16.29;40.15;99942.25;4995585;28;20050;-91
2020/12/13 00:05:00;;;;;;;13.55;4.47;;;;;;;16.42;40.31;99937.34;4981732;28;20022;-80
2020/12/13 00:07:26;;;;;;;9.02;3.20;;;;;;;16.48;39.86;99936.66;4989609;28;20057;-88
2020/12/13 00:09:51;;;;;;;16.83;4.88;;;;;;;16.51;40.04;99940.63;4978809;28;20027;-86
2020/12/13 00:12:17;;;;;;;9.80;3.45;;;;;;;16.63;39.74;99946.72;4984063;28;20023;-92
2020/12/13 00:14:42;;;;;;;11.82;4.28;;;;;;;16.71;39.68;99944.09;4981304;28;20097;-92
2020/12/13 00:17:08;;;;;;;12.90;3.97;;;;;;;16.35;40.20;99935.28;4988597;28;20485;-85
2020/12/13 00:19:33;;;;;;;11.25;3.00;;;;;;;16.61;39.84;99943.50;4995383;28;20026;-87
2020/12/13 00:21:59;;;;;;;12.85;3.67;;;;;;;16.70;40.02;99956.25;4995574;28;20536;-86
2020/12/13 00:24:25;;;;;;;14.73;3.65;;;;;;;16.59;40.17;99961.59;4994239;28;20089;-85
2020/12/13 00:26:50;;;;;;;11.00;4.75;;;;;;;16.91;39.51;99962.88;4976269;28;20030;-88
2020/12/13 00:29:16;;;;;;;13.65;3.97;;;;;;;16.80;39.84;99970.22;4995713;28;20401;-86
2020/12/13 00:31:42;;;;;;;12.77;4.43;;;;;;;16.90;39.77;99960.50;4994589;28;20030;-92
2020/12/13 00:34:08;;;;;;;15.10;4.65;;;;;;;16.91;39.85;99948.28;4978390;28;20034;-86
2020/12/13 00:36:34;;;;;;;24.15;4.88;;;;;;;16.89;39.93;99948.66;4981731;28;20031;-88
2020/12/13 00:38:59;;;;;;;15.02;3.03;;;;;;;16.91;39.91;99938.03;4966986;28;20481;-89
2020/12/13 00:41:25;;;;;;;8.38;3.03;;;;;;;16.94;40.20;99944.78;4983072;28;20034;-91
2020/12/13 00:43:50;;;;;;;10.30;3.03;;;;;;;16.91;40.37;99949.06;4978252;28;20035;-85
2020/12/13 00:46:16;;;;;;;11.20;4.25;;;;;;;16.94;40.20;99947.53;4977832;28;20484;-89
2020/12/13 00:48:41;;;;;;;16.20;5.05;;;;;;;16.91;40.37;99917.94;4977053;28;20033;-87
2020/12/13 00:51:07;;;;;;;12.98;3.80;;;;;;;16.96;40.29;99920.38;4995417;28;20473;-92
2020/12/13 00:53:33;;;;;;;9.70;3.45;;;;;;;17.03;40.27;99916.91;4995409;28;20129;-89
2020/12/13 00:55:58;;;;;;;11.05;3.03;;;;;;;16.92;40.71;99897.44;4977929;28;20026;-90
2020/12/13 00:58:24;;;;;;;14.43;3.70;;;;;;;17.19;40.15;99893.44;4995086;28;20105;-93
2020/12/13 01:00:49;;;;;;;17.63;3.80;;;;;;;17.30;39.78;99887.22;4978025;28;20034;-89
2020/12/13 01:03:15;;;;;;;11.90;3.95;;;;;;;16.99;40.52;99872.69;4995137;28;20392;-86
2020/12/13 01:05:41;;;;;;;12.60;3.90;;;;;;;17.23;40.02;99871.41;4977518;28;20034;-89
2020/12/13 01:08:08;;;;;;;9.93;3.65;;;;;;;17.09;40.24;99869.28;4977918;28;20030;-87
2020/12/13 01:10:34;;;;;;;18.92;3.97;;;;;;;17.14;40.45;99860.63;4995292;28;20168;-92
2020/12/13 01:13:00;;;;;;;13.10;3.85;;;;;;;16.90;40.79;99852.88;4978183;28;20069;-90
2020/12/13 01:15:25;;;;;;;21.48;5.25;;;;;;;17.06;40.73;99839.66;4996702;28;20473;-81
2020/12/13 01:17:53;;;;;;;14.23;3.75;;;;;;;17.09;40.60;99838.91;4978702;28;20034;-94
2020/12/13 01:20:20;;;;;;;11.60;3.17;;;;;;;17.01;40.92;99825.41;4979323;28;20462;-91
2020/12/13 01:22:46;;;;;;;11.20;3.42;;;;;;;17.00;40.81;99808.03;4978409;28;20041;-86
2020/12/13 01:25:12;;;;;;;15.27;4.13;;;;;;;17.19;40.64;99791.28;4994865;28;20030;-86
2020/12/13 01:27:38;;;;;;;8.95;3.55;;;;;;;17.20;40.62;99779.06;4994686;28;20054;-90
2020/12/13 01:30:06;;;;;;;12.00;4.07;;;;;;;17.33;40.31;99770.50;4993372;28;20022;-89
2020/12/13 01:32:39;;;;;;;9.10;3.33;;;;;;;16.87;41.04;99763.38;4977367;28;20424;-86
2020/12/13 01:35:09;;;;;;;14.10;3.15;;;;;;;17.13;40.67;99754.16;4977132;28;20121;-88
2020/12/13 01:37:34;;;;;;;11.27;2.90;;;;;;;17.08;40.61;99751.78;4977369;28;20034;-90
2020/12/13 01:40:00;;;;;;;9.80;2.67;;;;;;;17.05;40.92;99740.69;4994647;28;20077;-90
2020/12/13 01:42:26;;;;;;;11.52;3.45;;;;;;;17.22;40.51;99750.28;4976608;28;20050;-87
2020/12/13 01:44:51;;;;;;;8.82;2.70;;;;;;;17.20;40.85;99745.94;4976928;28;20022;-91
2020/12/13 01:47:21;;;;;;;10.32;2.63;;;;;;;17.00;41.11;99741.03;4977162;28;20022;-85
2020/12/13 01:49:48;;;;;;;12.55;2.38;;;;;;;17.27;40.25;99741.66;4977045;28;20065;-87
2020/12/13 01:55:01;;;;;;;6.55;1.67;;;;;;;17.02;40.61;99724.91;4994218;28;20037;-89
2020/12/13 01:57:32;;;;;;;7.38;1.80;;;;;;;17.15;40.39;99715.13;4976948;28;20509;-88
2020/12/13 02:00:00;;;;;;;8.10;1.55;;;;;;;17.12;40.59;99718.66;4996266;28;20076;-88
2020/12/13 02:02:31;;;;;;;7.10;1.40;;;;;;;17.19;40.25;99705.72;4998172;28;20027;-87
2020/12/13 02:04:59;;;;;;;7.20;1.85;;;;;;;16.99;40.63;99707.13;4998302;28;20057;-86
2020/12/13 02:07:27;;;;;;;8.68;2.33;;;;;;;16.96;40.71;99709.84;4980563;28;20034;-86
2020/12/13 02:09:53;;;;;;;7.53;1.95;;;;;;;17.05;41.06;99705.59;4980664;28;20023;-88
2020/12/13 02:12:19;;;;;;;7.57;1.65;;;;;;;17.10;40.94;99710.78;4998015;28;20149;-85
2020/12/13 02:14:44;;;;;;;16.70;2.53;;;;;;;16.82;41.79;99719.59;4980188;28;20118;-84
2020/12/13 02:17:10;;;;;;;7.53;1.60;;;;;;;16.80;41.91;99715.63;4980696;28;20107;-87
2020/12/13 02:19:36;;;;;;;11.93;1.77;;;;;;;16.93;41.59;99727.97;4997759;28;20535;-90
2020/12/13 02:22:02;;;;;;;13.77;2.05;;;;;;;16.79;42.00;99717.59;4980337;28;20053;-88
2020/12/13 02:24:27;;;;;;;9.63;2.08;;;;;;;16.81;42.52;99704.19;4980115;28;20116;-88
2020/12/13 02:26:53;;;;;;;11.90;2.95;;;;;;;16.96;42.13;99705.13;4980442;28;20105;-91
2020/12/13 02:29:19;;;;;;;15.45;2.47;;;;;;;16.73;42.83;99699.78;4979930;28;20460;-88
2020/12/13 02:31:45;;;;;;;14.45;2.17;;;;;;;16.84;42.76;99705.41;4980534;28;20622;-90
2020/12/13 02:34:10;;;;;;;8.95;2.35;;;;;;;16.97;42.38;99703.16;4997711;28;20022;-88
2020/12/13 02:36:36;;;;;;;13.65;2.33;;;;;;;16.81;42.87;99684.09;4979715;28;20029;-86
2020/12/13 02:39:05;;;;;;;9.48;2.00;;;;;;;16.68;42.93;99686.31;4997219;28;20038;-90
2020/12/13 02:41:31;;;;;;;6.00;1.40;;;;;;;16.84;42.66;99675.06;4979453;28;20377;-86
2020/12/13 02:43:56;;;;;;;7.55;1.65;;;;;;;16.81;42.59;99668.34;4980152;28;20026;-88
2020/12/13 02:46:22;;;;;;;7.00;1.70;;;;;;;16.88;42.49;99657.38;4997554;28;20072;-90
2020/12/13 02:48:47;;;;;;;14.65;3.28;;;;;;;16.90;42.41;99649.50;4979712;28;20022;-90
2020/12/13 02:51:13;;;;;;;10.60;2.20;;;;;;;16.80;43.06;99638.38;4997144;28;20026;-91
2020/12/13 02:53:38;;;;;;;9.65;2.13;;;;;;;16.88;43.19;99634.50;4997072;28;20042;-87
2020/12/13 02:56:04;;;;;;;12.52;2.85;;;;;;;16.76;43.32;99615.47;4996980;28;20026;-90
2020/12/13 02:58:30;;;;;;;8.48;2.00;;;;;;;16.76;43.85;99607.19;4980016;28;20404;-83
2020/12/13 03:00:56;;;;;;;13.07;1.83;;;;;;;17.03;43.07;99602.28;4996696;28;20022;-87
2020/12/13 03:03:23;;;;;;;16.05;4.05;;;;;;;17.05;43.39;99588.91;4979841;28;20061;-87
2020/12/13 03:05:48;;;;;;;15.50;2.83;;;;;;;16.77;44.30;99589.47;4996786;28;20038;-94
2020/12/13 03:08:14;;;;;;;8.43;2.30;;;;;;;16.92;43.86;99585.66;4979233;28;20022;-87
2020/12/13 03:10:39;;;;;;;13.73;3.38;;;;;;;16.91;44.03;99578.56;4995880;28;20027;-88
2020/12/13 03:13:05;;;;;;;14.52;2.53;;;;;;;16.62;44.87;99592.13;4979175;28;20043;-81
2020/12/13 03:15:30;;;;;;;17.55;3.75;;;;;;;16.81;44.57;99593.06;4979442;28;20061;-92
2020/12/13 03:17:56;;;;;;;14.90;3.10;;;;;;;16.63;45.21;99590.94;4979259;28;20465;-84
2020/12/13 03:20:21;;;;;;;15.30;2.97;;;;;;;16.87;44.77;99586.81;4979111;28;20034;-85
2020/12/13 03:22:47;;;;;;;13.95;3.10;;;;;;;17.09;44.16;99585.00;4978901;28;20034;-90
2020/12/13 03:25:12;;;;;;;13.25;3.33;;;;;;;17.06;44.43;99580.22;4979155;28;20049;-85
2020/12/13 03:27:38;;;;;;;13.63;3.00;;;;;;;17.13;44.39;99579.47;4979025;28;20037;-83
2020/12/13 03:30:04;;;;;;;13.77;3.30;;;;;;;17.04;45.09;99576.28;4995961;28;20113;-93
2020/12/13 03:32:29;;;;;;;21.75;4.40;;;;;;;17.24;44.57;99568.53;4996308;28;20077;-90
2020/12/13 03:34:58;;;;;;;21.58;3.90;;;;;;;17.48;44.06;99567.84;4978861;28;20027;-82
2020/12/13 03:37:24;;;;;;;13.80;3.80;;;;;;;17.00;45.67;99562.44;4978961;28;20439;-81
2020/12/13 03:39:49;;;;;;;14.60;2.95;;;;;;;17.09;45.59;99551.09;4979026;28;20022;-87
2020/12/13 03:42:15;;;;;;;14.27;3.30;;;;;;;17.06;45.68;99544.34;4978644;28;20055;-81
2020/12/13 03:44:42;;;;;;;11.88;3.20;;;;;;;17.17;45.58;99531.41;4995960;28;20045;-89
2020/12/13 03:47:07;;;;;;;19.83;3.58;;;;;;;17.29;45.51;99518.44;4996142;28;20027;-90
2020/12/13 03:49:33;;;;;;;16.40;3.20;;;;;;;17.25;45.52;99504.63;4996041;28;20384;-82
2020/12/13 03:51:58;;;;;;;16.17;4.20;;;;;;;16.95;46.46;99490.28;4978471;28;20034;-84
2020/12/13 03:54:24;;;;;;;18.65;3.38;;;;;;;16.94;46.84;99472.94;4978316;28;20081;-87
2020/12/13 03:56:50;;;;;;;15.50;2.80;;;;;;;16.78;47.58;99433.84;4978526;28;20034;-81
2020/12/13 03:59:15;;;;;;;14.20;3.15;;;;;;;17.05;46.90;99434.34;4978334;28;20034;-85
2020/12/13 04:01:41;;;;;;;11.68;3.50;;;;;;;16.75;47.77;99424.38;4995494;28;20031;-80
2020/12/13 04:04:06;;;;;;;10.20;3.13;;;;;;;16.71;47.64;99423.56;4996049;28;20034;-92
2020/12/13 04:06:32;;;;;;;16.70;2.45;;;;;;;16.90;47.33;99414.19;4995367;28;20044;-90
2020/12/13 04:08:57;;;;;;;12.35;2.30;;;;;;;16.70;48.14;99410.16;4978662;28;20477;-82
2020/12/13 04:11:23;;;;;;;16.60;4.60;;;;;;;16.53;49.13;99401.38;4978459;28;20031;-80
2020/12/13 04:13:48;;;;;;;10.93;2.28;;;;;;;16.64;48.65;99377.41;4978046;28;20034;-81
2020/12/13 04:16:14;;;;;;;13.55;3.10;;;;;;;16.98;47.72;99366.13;4995489;28;20130;-82
2020/12/13 04:18:40;;;;;;;10.85;1.80;;;;;;;16.29;49.84;99366.16;4995462;28;20442;-83
2020/12/13 04:21:05;;;;;;;8.88;1.75;;;;;;;16.05;50.67;99357.38;4978328;28;20077;-81
2020/12/13 04:23:32;;;;;;;12.15;2.78;;;;;;;16.46;49.71;99364.69;4977646;28;20026;-81
2020/12/13 04:25:58;;;;;;;9.18;2.35;;;;;;;16.62;49.47;99365.16;4993995;28;20058;-81
2020/12/13 04:28:24;;;;;;;10.93;2.65;;;;;;;17.06;48.14;99355.91;4977647;28;20069;-81
2020/12/13 04:30:50;;;;;;;13.85;2.58;;;;;;;16.55;49.80;99334.78;4977820;28;20034;-84
2020/12/13 04:33:15;;;;;;;11.65;2.38;;;;;;;16.61;49.57;99323.00;4978235;28;20125;-89
2020/12/13 04:35:41;;;;;;;11.10;2.40;;;;;;;16.57;50.03;99322.22;4995096;28;20041;-89
2020/12/13 04:38:06;;;;;;;10.98;2.40;;;;;;;16.96;48.64;99331.84;4977745;28;20192;-81
2020/12/13 04:40:34;;;;;;;12.57;2.80;;;;;;;16.81;49.14;99306.19;4977941;28;20092;-80
2020/12/13 04:43:01;;;;;;;14.18;2.63;;;;;;;16.82;49.54;99338.09;4977040;28;20054;-81
2020/12/13 04:45:28;;;;;;;16.60;2.67;;;;;;;16.63;49.96;99328.16;4977406;28;20041;-89
2020/12/13 04:48:08;;;;;;;16.20;2.92;;;;;;;16.59;49.76;99311.59;4994688;28;20026;-89
2020/12/13 04:50:39;;;;;;;18.52;3.63;;;;;;;16.76;49.21;99312.06;4994842;28;20057;-84
2020/12/13 04:53:09;;;;;;;15.43;2.28;;;;;;;16.73;49.07;99297.09;4977214;28;20400;-81
2020/12/13 04:55:42;;;;;;;;;;;;;;;16.80;49.24;99301.84;4977743;28;20177;-81
2020/12/13 04:58:11;;;;;;;15.77;2.72;;;;;;;17.13;48.17;99284.19;4977403;28;19921;-83
2020/12/13 05:00:41;;;;;;;15.48;3.08;;;;;;;16.94;48.82;99277.06;4994581;28;20030;-91
2020/12/13 05:03:12;;;;;;;17.27;2.92;;;;;;;16.63;49.88;99264.75;4993265;28;20534;-89
2020/12/13 05:05:38;;;;;;;10.25;2.75;;;;;;;16.30;50.96;99246.47;4977335;28;20544;-83
2020/12/13 05:08:03;;;;;;;12.00;2.10;;;;;;;16.59;50.59;99258.41;4977657;28;20026;-81
2020/12/13 05:10:30;;;;;;;9.93;2.00;;;;;;;16.87;49.85;99232.91;4994866;28;20053;-81
2020/12/13 05:12:55;;;;;;;11.63;1.92;;;;;;;16.88;49.75;99217.94;4976659;28;20026;-89
2020/12/13 05:15:21;;;;;;;8.70;2.28;;;;;;;16.84;49.77;99200.56;4977008;28;20029;-81
2020/12/13 05:17:46;;;;;;;13.13;2.50;;;;;;;17.22;48.97;99192.72;4976703;28;20573;-90
2020/12/13 05:20:12;;;;;;;23.73;3.42;;;;;;;17.13;49.30;99188.38;4976328;28;20030;-91
2020/12/13 05:22:38;;;;;;;9.60;2.78;;;;;;;16.81;50.35;99169.06;4976230;28;20030;-80
2020/12/13 05:25:13;;;;;;;13.80;3.00;;;;;;;17.14;49.71;99156.81;4994343;28;20027;-89
2020/12/13 05:27:41;;;;;;;17.67;3.25;;;;;;;16.89;50.08;99139.50;4993868;28;20101;-88
2020/12/13 05:30:08;;;;;;;17.23;3.00;;;;;;;16.68;50.42;99136.69;4976628;28;20029;-85
2020/12/13 05:32:33;;;;;;;11.32;2.95;;;;;;;16.70;50.86;99135.16;4994350;28;20022;-81
2020/12/13 05:34:59;;;;;;;10.32;2.92;;;;;;;16.85;50.13;99145.03;4976712;28;20484;-88
2020/12/13 05:37:29;;;;;;;12.82;2.40;;;;;;;16.72;50.19;99140.28;4994182;28;20559;-86
2020/12/13 05:39:54;;;;;;;;;;;;;;;16.56;51.03;99155.22;4994624;28;20370;-85
2020/12/13 05:42:25;;;;;;;17.30;3.00;;;;;;;16.92;50.12;99138.69;4976512;28;19918;-81
2020/12/13 05:53:02;;;;;;;13.63;2.90;;;;;;;17.25;49.60;99118.19;4994259;28;20061;-85
2020/12/13 05:55:28;;;;;;;8.80;2.58;;;;;;;17.30;49.54;99092.94;4994242;28;20027;-87
2020/12/13 05:57:54;;;;;;;14.25;2.05;;;;;;;17.16;50.28;99098.50;4994807;28;20023;-91
2020/12/13 06:00:21;;;;;;;12.43;2.28;;;;;;;17.34;49.60;99092.94;4977320;28;20030;-90
2020/12/13 06:02:49;;;;;;;9.82;1.88;;;;;;;17.03;50.77;99087.06;4976782;28;20070;-91
2020/12/13 06:05:15;;;;;;;9.20;2.08;;;;;;;16.97;51.06;99085.91;4994295;28;20027;-84
2020/12/13 06:07:49;;;;;;;8.23;2.00;;;;;;;17.48;49.48;99079.09;4993361;28;20019;-93
2020/12/13 06:10:26;;;;;;;8.25;1.85;;;;;;;17.25;50.17;99067.72;4976153;28;20026;-82
2020/12/13 06:13:20;;;;;;;14.10;2.22;;;;;;;16.99;51.06;99071.69;4994019;28;20022;-91
2020/12/13 06:15:47;;;;;;;9.55;2.15;;;;;;;17.60;49.19;99051.03;4976686;28;20042;-80
2020/12/13 06:18:13;;;;;;;10.00;2.80;;;;;;;17.69;49.30;99051.41;4979917;28;20591;-80
2020/12/13 06:20:41;;;;;;;11.40;2.63;;;;;;;17.52;49.62;99065.25;4996979;28;20077;-84
2020/12/13 06:23:08;;;;;;;8.55;1.90;;;;;;;17.55;49.74;99048.69;4997727;28;20448;-79
2020/12/13 06:25:33;;;;;;;10.23;2.08;;;;;;;17.96;48.54;99045.34;4993495;28;20404;-80
2020/12/13 06:27:59;;;;;;;12.60;2.20;;;;;;;17.86;48.65;99026.88;4993601;28;20034;-80
2020/12/13 06:30:26;;;;;;;13.35;2.80;;;;;;;17.82;48.92;99032.41;4976174;28;20395;-85
2020/12/13 06:32:52;;;;;;;9.80;2.13;;;;;;;17.61;49.92;99029.75;4976323;28;20066;-89
2020/12/13 06:35:18;;;;;;;10.88;1.90;;;;;;;17.72;49.41;99023.00;4976413;28;20062;-86
2020/12/13 06:37:44;;;;;;;8.60;2.63;;;;;;;17.09;51.56;99016.50;4993758;28;20184;-84
2020/12/13 06:40:21;;;;;;;7.35;2.08;;;;;;;17.61;50.23;99007.66;4976147;28;20031;-82
2020/12/13 06:42:48;;;;;;;12.32;3.65;;;;;;;17.86;49.26;99016.59;4972928;28;20054;-81
2020/12/13 06:45:15;;;;;;;12.23;3.05;;;;;;;17.63;50.22;99000.53;4974915;28;20054;-84
2020/12/13 06:47:43;;;;;;;15.68;2.38;;;;;;;17.72;49.86;99000.09;4976455;28;20465;-86
2020/12/13 06:50:29;;;;;;;5.55;1.58;;;;;;;17.84;49.51;99009.91;4976606;28;20037;-90
2020/12/13 06:52:55;;;;;;;11.90;2.95;;;;;;;17.74;49.72;99004.03;4975898;28;20158;-81
2020/12/13 06:55:31;;;;;;;12.30;2.38;;;;;;;18.01;49.12;99003.50;4977581;28;20042;-84
2020/12/13 06:57:58;;;;;;;8.32;2.00;;;;;;;17.49;50.70;98992.31;4977969;28;20033;-81
2020/12/13 07:00:24;;;;;;;14.15;3.72;;;;;;;17.94;49.56;98968.41;4976410;28;20035;-81
2020/12/13 07:02:59;;;;;;;9.05;2.40;;;;;;;17.89;49.90;98973.56;4976766;28;20390;-91
2020/12/13 07:05:47;;;;;;;16.63;3.33;;;;;;;18.30;48.57;98970.91;4975810;28;20039;-80
2020/12/13 07:08:16;;;;;;;14.23;3.45;;;;;;;18.34;48.42;98957.03;4976021;28;20039;-82
2020/12/13 07:10:46;;;;;;;14.10;3.10;;;;;;;18.22;48.65;98948.06;4976367;28;20512;-87
2020/12/13 07:13:19;;;;;;;13.77;2.95;;;;;;;18.20;48.90;98958.72;4975814;28;20618;-82
2020/12/13 07:16:28;;;;;;;12.82;2.33;;;;;;;17.94;49.39;98926.16;4976079;28;20034;-86
2020/12/13 07:19:01;;;;;;;14.25;3.13;;;;;;;18.16;49.31;98946.91;4976974;28;20026;-80
2020/12/13 07:21:26;;;;;;;11.30;2.53;;;;;;;17.97;49.65;98933.63;4975467;28;20030;-81
2020/12/13 07:23:52;;;;;;;12.07;2.80;;;;;;;17.80;50.33;98913.25;4976791;28;20031;-81
2020/12/13 07:26:19;;;;;;;11.68;2.17;;;;;;;17.95;50.18;98916.69;4975470;28;20029;-82
2020/12/13 07:28:46;;;;;;;20.08;3.05;;;;;;;17.83;50.41;98895.84;4976174;28;20027;-82
2020/12/13 07:31:14;;;;;;;13.55;2.08;;;;;;;18.05;49.93;98888.16;4972247;28;20031;-88
2020/12/13 07:33:40;;;;;;;16.55;3.25;;;;;;;18.02;50.16;98889.00;4957084;28;20031;-92
2020/12/13 07:36:06;;;;;;;13.90;2.45;;;;;;;18.21;49.66;98871.03;4973139;28;20397;-80
2020/12/13 07:38:33;;;;;;;13.52;2.28;;;;;;;17.87;50.47;98865.44;4975671;28;20026;-81
2020/12/13 07:40:58;;;;;;;23.50;4.30;;;;;;;18.19;49.85;98860.41;4976516;28;20023;-89
2020/12/13 07:43:24;;;;;;;12.57;2.67;;;;;;;18.07;50.31;98847.13;4975620;28;20106;-80
2020/12/13 07:45:49;;;;;;;11.75;2.42;;;;;;;18.46;49.14;98843.94;4976958;28;20031;-90
2020/12/13 07:48:18;;;;;;;9.07;1.90;;;;;;;18.25;49.74;98852.47;4974990;28;20033;-86
2020/12/13 07:50:46;;;;;;;8.43;2.13;;;;;;;18.16;50.07;98843.88;4975307;28;20034;-80
2020/12/13 07:53:22;;;;;;;10.35;2.30;;;;;;;18.71;48.87;98840.91;4976168;28;20026;-93
2020/12/13 07:55:47;;;;;;;15.00;2.28;;;;;;;18.45;49.57;98831.31;4976059;28;20078;-83
2020/12/13 07:58:18;;;;;;;10.20;1.92;;;;;;;18.54;49.18;98828.06;4975640;28;20437;-87
2020/12/13 08:00:44;;;;;;;13.80;2.08;;;;;;;18.74;49.00;98840.13;4975116;28;20030;-84
2020/12/13 08:03:10;;;;;;;14.30;2.25;;;;;;;18.78;48.60;98840.84;4974987;28;20026;-81
2020/12/13 08:05:36;;;;;;;14.18;2.92;;;;;;;18.54;49.53;98833.59;4976327;28;20023;-94
2020/12/13 08:08:02;;;;;;;8.73;2.30;;;;;;;18.72;48.96;98855.53;4975725;28;20453;-94
2020/12/13 08:10:28;;;;;;;8.20;1.65;;;;;;;18.92;48.57;98842.66;4975049;28;20030;-86
2020/12/13 08:12:55;;;;;;;4.68;1.42;;;;;;;19.03;48.20;98832.22;4976317;28;20029;-90
2020/12/13 08:15:20;;;;;;;3.50;1.17;;;;;;;19.18;47.81;98826.47;4975394;28;20038;-85
2020/12/13 08:18:07;;;;;;;4.55;1.13;;;;;;;18.75;49.14;98824.28;4974492;28;20023;-81
2020/12/13 08:20:37;;;;;;;11.48;1.60;;;;;;;19.27;47.79;98815.66;4966451;28;20033;-80
2020/12/13 08:23:05;;;;;;;5.47;1.50;;;;;;;19.12;48.21;98810.34;4975627;28;20023;-81
2020/12/13 08:25:35;;;;;;;7.30;1.45;;;;;;;18.93;48.84;98791.63;4975747;28;20106;-80
2020/12/13 08:28:04;;;;;;;6.85;2.53;;;;;;;19.06;48.72;98791.88;4976358;28;20049;-92
2020/12/13 08:30:31;;;;;;;7.45;2.00;;;;;;;19.19;48.30;98780.97;4975394;28;20552;-82
2020/12/13 08:32:58;;;;;;;5.72;1.33;;;;;;;18.92;49.20;98775.44;4975963;28;20026;-78
2020/12/13 08:35:27;;;;;;;10.13;2.53;;;;;;;19.43;48.19;98762.44;4990060;28;20030;-91
2020/12/13 08:38:00;;;;;;;5.50;1.70;;;;;;;19.29;48.07;98758.69;4975583;28;20037;-79
2020/12/13 08:40:46;;;;;;;7.70;1.80;;;;;;;19.47;47.93;98763.16;4975255;28;20448;-85
2020/12/13 08:43:17;;;;;;;8.00;1.95;;;;;;;19.55;47.71;98761.81;4974842;28;20149;-89
2020/12/13 08:45:51;;;;;;;6.63;1.65;;;;;;;19.35;48.08;98751.47;4974463;28;20034;-87
2020/12/13 08:48:25;;;;;;;13.35;1.73;;;;;;;19.45;48.36;98746.19;4975323;28;20134;-84
2020/12/13 08:51:07;;;;;;;9.40;2.47;;;;;;;19.41;48.48;98727.63;4974631;28;20031;-83
2020/12/13 08:53:33;;;;;;;9.73;2.25;;;;;;;19.70;47.70;98726.38;4973489;28;20093;-83
2020/12/13 08:56:13;;;;;;;13.05;2.05;;;;;;;19.77;47.50;98724.25;4973433;28;20030;-84
2020/12/13 08:59:05;;;;;;;8.77;2.03;;;;;;;19.64;47.78;98712.22;4973617;28;20458;-83
2020/12/13 09:01:35;;;;;;;8.75;1.88;;;;;;;19.62;47.81;98709.09;4972322;28;20070;-82
2020/12/13 09:04:01;;;;;;;12.38;2.90;;;;;;;19.91;47.04;98707.38;4973350;28;20496;-83
2020/12/13 09:06:32;;;;;;;6.13;1.73;;;;;;;20.05;46.73;98689.69;4989317;28;20404;-83
2020/12/13 09:09:13;;;;;;;6.53;1.58;;;;;;;19.93;46.95;98655.06;4972971;28;20049;-82
2020/12/13 09:11:40;;;;;;;9.82;2.13;;;;;;;19.88;47.16;98660.34;4974501;28;20444;-83
2020/12/13 09:14:05;;;;;;;7.93;1.98;;;;;;;19.89;47.24;98659.13;4973827;28;20034;-84
2020/12/13 09:16:34;;;;;;;9.98;2.33;;;;;;;19.92;47.05;98655.50;4973451;28;20041;-82
2020/12/13 09:19:11;;;;;;;12.10;2.25;;;;;;;19.83;47.23;98647.75;4974236;28;20481;-82
2020/12/13 09:21:48;;;;;;;12.65;2.00;;;;;;;19.79;47.32;98635.94;4971883;28;20046;-78
2020/12/13 09:24:16;;;;;;;17.92;2.55;;;;;;;20.02;46.71;98637.09;4973877;28;20031;-81
2020/12/13 09:26:41;;;;;;;13.77;2.50;;;;;;;20.13;46.48;98626.56;4974055;28;20401;-79
2020/12/13 09:29:07;;;;;;;15.98;3.80;;;;;;;19.97;47.13;98616.22;4972735;28;20027;-79
2020/12/13 09:31:33;;;;;;;17.63;4.88;;;;;;;19.90;47.25;98614.34;4973959;28;20466;-78
2020/12/13 09:33:59;;;;;;;13.85;3.25;;;;;;;19.48;48.53;98607.63;4974118;28;20485;-80
2020/12/13 09:36:24;;;;;;;17.05;3.53;;;;;;;19.66;48.26;98599.81;4973983;28;20117;-78
2020/12/13 09:38:50;;;;;;;20.23;4.68;;;;;;;19.54;48.77;98589.31;4973903;28;20110;-80
2020/12/13 09:41:22;;;;;;;24.90;4.53;;;;;;;19.46;49.07;98579.56;4974751;28;20089;-78
2020/12/13 09:43:48;;;;;;;22.95;3.97;;;;;;;19.89;47.78;98570.44;4976069;28;20147;-80
2020/12/13 09:46:18;;;;;;;24.75;5.65;;;;;;;19.93;48.03;98571.91;4993173;28;20031;-80
2020/12/13 09:48:43;;;;;;;31.38;6.57;;;;;;;20.23;47.23;98578.41;4993333;28;20022;-80
2020/12/13 09:51:09;;;;;;;26.63;5.72;;;;;;;20.13;47.56;98577.44;4975748;28;20041;-82
2020/12/13 09:53:34;;;;;;;26.77;6.63;;;;;;;20.10;47.86;98566.41;4993194;28;20027;-79
2020/12/13 09:56:00;;;;;;;37.83;6.80;;;;;;;20.11;47.83;98573.56;4993024;28;20034;-81
2020/12/13 09:58:25;;;;;;;33.60;6.00;;;;;;;20.06;48.06;98558.19;4993202;28;20034;-80
2020/12/13 10:00:51;;;;;;;41.80;8.85;;;;;;;19.79;48.94;98550.03;4994075;28;20022;-92
2020/12/13 10:03:17;;;;;;;32.08;8.23;;;;;;;19.80;49.17;98550.81;4997962;28;20632;-81
2020/12/13 10:11:10;;;;;;;42.58;8.25;;;;;;;19.65;49.63;98537.28;4993177;28;20057;-78
2020/12/13 10:13:36;;;;;;;37.30;6.72;;;;;;;19.62;49.63;98540.91;4993358;28;20035;-79
2020/12/13 10:16:02;;;;;;;49.78;8.23;;;;;;;19.80;49.34;98542.50;4975368;28;20034;-80
2020/12/13 10:18:27;;;;;;;31.88;7.38;;;;;;;19.83;49.36;98542.44;4992843;28;20110;-80
2020/12/13 10:20:53;;;;;;;46.38;8.18;;;;;;;20.38;47.73;98567.78;4994758;28;20037;-79
2020/12/13 10:23:18;;;;;;;43.08;6.90;;;;;;;20.36;47.71;98579.31;4996663;28;20041;-80
2020/12/13 10:25:47;;;;;;;25.20;5.97;;;;;;;20.32;48.01;98586.91;4996576;28;20038;-82
2020/12/13 10:28:12;;;;;;;17.33;4.53;;;;;;;20.85;46.64;98584.13;4996628;28;20066;-79
2020/12/13 10:30:38;;;;;;;20.63;4.18;;;;;;;20.91;46.56;98599.06;4996441;28;20434;-80
2020/12/13 10:33:04;;;;;;;12.13;2.83;;;;;;;20.95;46.54;98596.97;4996422;28;20035;-79
2020/12/13 10:35:29;;;;;;;12.00;2.90;;;;;;;21.12;46.07;98594.97;4996358;28;20038;-79
2020/12/13 10:37:55;;;;;;;7.78;2.00;;;;;;;20.86;46.75;98602.38;4978929;28;20480;-77
2020/12/13 10:40:20;;;;;;;5.75;1.92;;;;;;;20.91;46.56;98602.59;4978523;28;20026;-77
2020/12/13 10:42:46;;;;;;;10.18;2.70;;;;;;;20.72;47.08;98601.50;4995644;28;20497;-77
2020/12/13 10:45:11;;;;;;;7.50;1.50;;;;;;;20.64;47.47;98602.09;4978786;28;20226;-77
2020/12/13 10:47:37;;;;;;;5.13;0.90;;;;;;;20.99;46.72;98587.31;4996211;28;20038;-77
2020/12/13 10:50:03;;;;;;;5.20;0.98;;;;;;;21.34;45.58;98576.56;4996296;28;20030;-77
2020/12/13 10:52:28;;;;;;;4.82;1.00;;;;;;;21.24;45.90;98566.50;4996163;28;20037;-78
2020/12/13 10:54:54;;;;;;;5.72;0.93;;;;;;;21.09;46.12;98568.09;4963722;28;20118;-77
2020/12/13 10:57:19;;;;;;;8.13;1.50;;;;;;;20.77;47.07;98555.78;4975328;28;20089;-83
2020/12/13 10:59:45;;;;;;;6.65;1.20;;;;;;;20.80;47.04;98552.16;4975458;28;20058;-82
2020/12/13 11:02:11;;;;;;;9.15;1.30;;;;;;;21.31;45.97;98546.84;4976399;28;20089;-79
2020/12/13 11:04:36;;;;;;;2.97;1.08;;;;;;;21.25;45.70;98540.28;4976451;28;20030;-79
2020/12/13 11:07:02;;;;;;;4.47;1.08;;;;;;;20.92;46.77;98534.00;4959525;28;20481;-79
2020/12/13 11:09:27;;;;;;;4.20;0.93;;;;;;;20.74;47.56;98523.34;4976650;28;20033;-80
2020/12/13 11:11:53;;;;;;;2.85;1.10;;;;;;;20.70;47.48;98515.09;4976479;28;20107;-81
2020/12/13 11:14:18;;;;;;;5.28;1.90;;;;;;;20.92;47.05;98487.56;4976402;28;20019;-78
2020/12/13 11:16:47;;;;;;;4.68;1.35;;;;;;;20.96;47.02;98460.50;4976836;28;20031;-88
2020/12/13 11:19:13;;;;;;;7.70;1.85;;;;;;;20.88;47.16;98436.94;4960336;28;20026;-79
2020/12/13 11:21:45;;;;;;;1.65;0.68;;;;;;;20.94;47.28;98426.09;4959866;28;20085;-89
2020/12/13 11:24:11;;;;;;;5.10;1.85;;;;;;;21.16;46.70;98438.16;4977242;28;20051;-79
2020/12/13 11:26:37;;;;;;;7.50;1.88;;;;;;;21.11;46.99;98440.69;4976985;28;20030;-85
2020/12/13 11:29:03;;;;;;;5.15;1.23;;;;;;;21.17;46.84;98425.06;4975633;28;20027;-81
2020/12/13 11:31:28;;;;;;;5.63;2.13;;;;;;;;;;4976866;28;20497;-86
2020/12/13 11:33:54;;;;;;;9.60;3.97;;;;;;;21.41;46.40;98409.69;4976979;28;20027;-85
2020/12/13 11:36:19;;;;;;;14.13;7.70;;;;;;;21.32;46.75;98399.25;4959664;28;20030;-79
2020/12/13 11:38:45;;;;;;;16.50;8.65;;;;;;;21.41;46.61;98381.13;4976900;28;20027;-78
2020/12/13 11:41:10;;;;;;;26.23;10.25;;;;;;;21.44;46.59;98366.34;4958991;28;20026;-77
2020/12/13 11:43:36;;;;;;;47.55;18.38;;;;;;;21.72;45.95;98381.38;4959358;28;20026;-83
2020/12/13 11:46:01;;;;;;;35.92;11.95;;;;;;;21.80;45.71;98372.34;4976450;28;20084;-87